Hovedside
METAR-TAF:

METAR-TAF

Lufthavner :

Notodden lufthavn

Notodden, Norge

breddegrad: 59-34N, lengdegrad: 009-13E, høyde over havet: 19 m

Gjeldene værobservasjon

Denne rapporten ble laget for 7 timer og 47 minutter siden, klokken 17:50 UTC
Vind 2 kt fra skiftende retning
Temperatur -7°C
Luftfuktighet 93%
Trykk 1009 hPa
Sikt 10 km eller mer
ingen skyer under 1500 m og ingen bygeskyer

METAR: ENNO 101750Z VRB02KT CAVOK M07/M08 Q1009

Tid: 02:37 (01:37 UTC)

Varsel

Denne rapporten ble laget for 14 timer og 37 minutter siden, klokken 11:00 UTC
Varsel gyldig fra 10. klokken 12 UTC til 10. klokken 18 UTC
Vind 5 kt fra skiftende retning
Sikt 10 km eller mer
Få skyer i en høyde av 200 ft
Midlertidig
fra 10. klokken 12 UTC til 10. klokken 18 UTC
Vind 10 kt fra Vest-nordvest med vindkast opp mot 20 kt

TAF: ENNO 101100Z 1012/1018 VRB05KT 9999 FEW002 TEMPO 1012/1018 30010G20KT

Værobservasjoner og værvarsel for over 4000 flyplasser (METAR- og TAF-rapporter).

Tilgjengelige stasjoner er representert av de røde og gule prikkene på kartet.

Hold musepekeren over prikken for å se navnet på stasjonen.

Klikk så for å se værobservasjoner og -varsler.

For å forandre kartet kan du klikke på den grønne knappen med svart kryss for å zoome inn, på den grønne knappen med strek for å zoome ut, eller på de grønne pilene for å se tilstøtende kart.


METAR-TAF: